首页
METAR-TAF:

METAR-TAF

机场 :

哈茨菲尔德-杰克逊亚特兰大国际机场

亚特兰大, 喬治亞, 美国

纬度: 33-38-25N, 经度: 084-25-37W, 海拔: 313米

当前天气观测

该预报发布于1小时和11分钟前的15:52 UTC
风速4节,风向西南
温度 32°C
湿度 52%
气压 1022 hPa
能見度: 16.1公里
少量云层高于4000英尺
散云层高于25000英尺

METAR: KATL 081552Z 23004KT 10SM FEW040 SCT250 32/21 A3019 RMK AO2 SLP210 T03170211

时间: 13:03 (17:03 UTC)

预报

该预报发布于1小时和31分钟前的15:32 UTC
预报有效从08日的 16点(UTC)到 09日的 18点(UTC)
风速3节,风向多变
能見度: 10公里
少量云层高于3500英尺
从 08日的 1800点(UTC)
风速5节,风向西转西北
能見度: 10公里
散云层高于5000英尺
附近有阵雨
从 09日的 0000点(UTC)
风速3节,风向多变
能見度: 10公里
少量云层高于6000英尺
从 09日的 1400点(UTC)
风速4节,风向西
能見度: 10公里
散云层高于3500英尺

TAF: KATL 081532Z 0816/0918 VRB03KT P6SM FEW035 FM081800 30005KT P6SM VCSH SCT050 FM090000 VRB03KT P6SM FEW060 FM091400 27004KT P6SM SCT035

超过4000个机场的气象观测和天气预报(METAR&TAF报告)。

可查询的气象台以黄色和红色小点在地图上表示。

将鼠标移到小点上方,可查看气象台名称。

然后点击查看天气观测和预报。

如需切换地图:点击带黑十字的绿色按钮放大地图;点击带横线的绿色按钮缩小地图;或者点击绿色箭头查看邻近地区的地图。


METAR-TAF: